CEB2902 RPVA-RPLL
Flight info
| Callsign | CEB2902 |
|---|---|
| Flight time | 1h 1m |
| Altitude | 35000 |
| Route | MALA5R MALAG W9 AKDAP AKDA3R |
| Aircraft | A321/M-VGDW/C |
Departure
| Time | 2026-05-07 01:02 |
|---|---|
| Airport | Daniel Z. Romualdez Airport (RPVA) |
Arrival
| Time | 2026-05-07 02:03 |
|---|---|
| Airport | Ninoy Aquino International Airport (RPLL) |
| Time | Latitude | Longitude | Altitude | Speed | Heading |
|---|---|---|---|---|---|
| 2026-05-07 00:56 | 11.22568 | 125.02682 | 20 ft | 4 kts | 116° |
| 2026-05-07 00:56 | 11.22564 | 125.02691 | 20 ft | 4 kts | 106° |
| 2026-05-07 00:56 | 11.22565 | 125.02722 | 20 ft | 5 kts | 86° |
| 2026-05-07 00:56 | 11.22554 | 125.02753 | 20 ft | 4 kts | 137° |
| 2026-05-07 00:57 | 11.22517 | 125.02758 | 20 ft | 6 kts | 183° |
| 2026-05-07 00:57 | 11.22465 | 125.02755 | 20 ft | 8 kts | 184° |
| 2026-05-07 00:57 | 11.22404 | 125.02751 | 20 ft | 9 kts | 184° |
| 2026-05-07 00:57 | 11.22332 | 125.02746 | 20 ft | 11 kts | 183° |
| 2026-05-07 00:58 | 11.22250 | 125.02741 | 21 ft | 12 kts | 183° |
| 2026-05-07 00:58 | 11.22160 | 125.02736 | 21 ft | 13 kts | 184° |
| 2026-05-07 00:58 | 11.22062 | 125.02730 | 21 ft | 14 kts | 183° |
| 2026-05-07 00:58 | 11.21957 | 125.02724 | 21 ft | 15 kts | 184° |
| 2026-05-07 00:59 | 11.21821 | 125.02740 | 22 ft | 4 kts | 186° |
| 2026-05-07 00:59 | 11.21806 | 125.02721 | 22 ft | 2 kts | 287° |
| 2026-05-07 00:59 | 11.21821 | 125.02714 | 22 ft | 0 kts | 4° |
| 2026-05-07 01:01 | 11.21914 | 125.02719 | 22 ft | 46 kts | 3° |
| 2026-05-07 01:01 | 11.22495 | 125.02758 | 21 ft | 118 kts | 3° |
| 2026-05-07 01:02 | 11.23517 | 125.02824 | 101 ft | 165 kts | 6° |
| 2026-05-07 01:02 | 11.24643 | 125.02895 | 768 ft | 160 kts | 8° |
| 2026-05-07 01:02 | 11.25722 | 125.02976 | 1533 ft | 152 kts | 9° |
| 2026-05-07 01:02 | 11.26766 | 125.03033 | 1985 ft | 154 kts | 9° |
| 2026-05-07 01:03 | 11.27887 | 125.03110 | 2271 ft | 169 kts | 9° |
| 2026-05-07 01:03 | 11.28872 | 125.03177 | 2521 ft | 181 kts | 9° |
| 2026-05-07 01:04 | 11.29005 | 125.03186 | 2555 ft | 183 kts | 9° |
| 2026-05-07 01:04 | 11.30333 | 125.03278 | 2874 ft | 199 kts | 9° |
| 2026-05-07 01:04 | 11.31804 | 125.03376 | 3207 ft | 216 kts | 8° |
| 2026-05-07 01:05 | 11.33386 | 125.03240 | 3434 ft | 245 kts | 343° |
| 2026-05-07 01:05 | 11.34858 | 125.02207 | 3799 ft | 267 kts | 317° |
| 2026-05-07 01:05 | 11.36193 | 125.00838 | 4309 ft | 278 kts | 318° |
| 2026-05-07 01:05 | 11.36726 | 125.00297 | 4491 ft | 283 kts | 318° |
| 2026-05-07 01:06 | 11.37779 | 124.99261 | 5362 ft | 283 kts | 315° |
| 2026-05-07 01:06 | 11.39146 | 124.97902 | 6377 ft | 276 kts | 315° |
| 2026-05-07 01:06 | 11.40522 | 124.96529 | 7170 ft | 277 kts | 315° |
| 2026-05-07 01:06 | 11.41911 | 124.95148 | 7886 ft | 280 kts | 315° |
| 2026-05-07 01:07 | 11.43321 | 124.93751 | 8589 ft | 284 kts | 315° |
| 2026-05-07 01:07 | 11.44753 | 124.92335 | 9280 ft | 287 kts | 315° |
| 2026-05-07 01:07 | 11.46174 | 124.90932 | 9947 ft | 289 kts | 315° |
| 2026-05-07 01:07 | 11.47644 | 124.89482 | 10507 ft | 297 kts | 315° |
| 2026-05-07 01:08 | 11.49164 | 124.87982 | 10807 ft | 313 kts | 315° |
| 2026-05-07 01:08 | 11.50763 | 124.86403 | 11094 ft | 328 kts | 315° |
| 2026-05-07 01:08 | 11.52450 | 124.84739 | 11442 ft | 341 kts | 315° |
| 2026-05-07 01:08 | 11.54153 | 124.83061 | 12019 ft | 345 kts | 315° |
| 2026-05-07 01:09 | 11.55887 | 124.81353 | 12653 ft | 347 kts | 315° |
| 2026-05-07 01:09 | 11.57686 | 124.79703 | 13255 ft | 350 kts | 319° |
| 2026-05-07 01:09 | 11.59646 | 124.78158 | 13846 ft | 353 kts | 323° |
| 2026-05-07 01:09 | 11.61683 | 124.76751 | 14412 ft | 356 kts | 325° |
| 2026-05-07 01:10 | 11.63779 | 124.75343 | 14967 ft | 359 kts | 326° |
| 2026-05-07 01:10 | 11.65874 | 124.73940 | 15509 ft | 362 kts | 326° |
| 2026-05-07 01:10 | 11.67975 | 124.72532 | 16047 ft | 364 kts | 326° |
| 2026-05-07 01:10 | 11.70122 | 124.71089 | 16584 ft | 366 kts | 326° |
| 2026-05-07 01:11 | 11.72253 | 124.69656 | 17096 ft | 369 kts | 326° |
| 2026-05-07 01:11 | 11.74416 | 124.68200 | 17595 ft | 371 kts | 326° |
| 2026-05-07 01:11 | 11.76573 | 124.66747 | 18075 ft | 374 kts | 326° |
| 2026-05-07 01:11 | 11.78746 | 124.65283 | 18547 ft | 376 kts | 326° |
| 2026-05-07 01:12 | 11.80951 | 124.63796 | 19013 ft | 378 kts | 326° |
| 2026-05-07 01:12 | 11.83141 | 124.62320 | 19464 ft | 381 kts | 326° |
| 2026-05-07 01:12 | 11.85384 | 124.60808 | 19912 ft | 383 kts | 326° |
| 2026-05-07 01:12 | 11.87613 | 124.59304 | 20346 ft | 385 kts | 326° |
| 2026-05-07 01:13 | 11.89855 | 124.57792 | 20773 ft | 387 kts | 326° |
| 2026-05-07 01:13 | 11.92123 | 124.56261 | 21194 ft | 389 kts | 326° |
| 2026-05-07 01:13 | 11.94390 | 124.54730 | 21597 ft | 391 kts | 326° |
| 2026-05-07 01:13 | 11.96653 | 124.53203 | 21979 ft | 393 kts | 326° |
| 2026-05-07 01:14 | 11.98971 | 124.51637 | 22372 ft | 395 kts | 326° |
| 2026-05-07 01:14 | 12.01268 | 124.50085 | 22752 ft | 397 kts | 326° |
| 2026-05-07 01:14 | 12.03589 | 124.48518 | 23117 ft | 399 kts | 326° |
| 2026-05-07 01:14 | 12.05916 | 124.46946 | 23466 ft | 401 kts | 326° |
| 2026-05-07 01:15 | 12.08246 | 124.45371 | 23823 ft | 403 kts | 326° |
| 2026-05-07 01:15 | 12.10598 | 124.43781 | 24169 ft | 405 kts | 326° |
| 2026-05-07 01:15 | 12.12953 | 124.42197 | 24492 ft | 407 kts | 326° |
| 2026-05-07 01:15 | 12.15320 | 124.40604 | 24807 ft | 409 kts | 326° |
| 2026-05-07 01:16 | 12.17721 | 124.38985 | 25117 ft | 411 kts | 326° |
| 2026-05-07 01:16 | 12.20097 | 124.37380 | 25419 ft | 413 kts | 326° |
| 2026-05-07 01:16 | 12.22520 | 124.35740 | 25725 ft | 415 kts | 326° |
| 2026-05-07 01:16 | 12.24922 | 124.34109 | 26018 ft | 417 kts | 325° |
| 2026-05-07 01:17 | 12.27333 | 124.32460 | 26302 ft | 418 kts | 325° |
| 2026-05-07 01:17 | 12.29789 | 124.30782 | 26586 ft | 420 kts | 326° |
| 2026-05-07 01:17 | 12.32230 | 124.29119 | 26863 ft | 422 kts | 326° |
| 2026-05-07 01:17 | 12.34684 | 124.27453 | 27141 ft | 423 kts | 326° |
| 2026-05-07 01:18 | 12.37149 | 124.25782 | 27408 ft | 425 kts | 326° |
| 2026-05-07 01:18 | 12.39617 | 124.24114 | 27665 ft | 427 kts | 326° |
| 2026-05-07 01:18 | 12.42113 | 124.22430 | 27913 ft | 429 kts | 326° |
| 2026-05-07 01:18 | 12.44646 | 124.20719 | 28162 ft | 431 kts | 326° |
| 2026-05-07 01:19 | 12.47140 | 124.19033 | 28402 ft | 432 kts | 326° |
| 2026-05-07 01:19 | 12.49665 | 124.17324 | 28645 ft | 434 kts | 326° |
| 2026-05-07 01:19 | 12.52210 | 124.15601 | 28882 ft | 436 kts | 325° |
| 2026-05-07 01:19 | 12.54755 | 124.13877 | 29104 ft | 438 kts | 325° |
| 2026-05-07 01:20 | 12.57329 | 124.12132 | 29314 ft | 441 kts | 325° |
| 2026-05-07 01:20 | 12.59869 | 124.10410 | 29513 ft | 443 kts | 325° |
| 2026-05-07 01:20 | 12.62482 | 124.08637 | 29691 ft | 446 kts | 325° |
| 2026-05-07 01:20 | 12.65062 | 124.06885 | 29865 ft | 449 kts | 325° |
| 2026-05-07 01:21 | 12.67661 | 124.05122 | 30101 ft | 450 kts | 325° |
| 2026-05-07 01:21 | 12.70287 | 124.03340 | 30408 ft | 449 kts | 325° |
| 2026-05-07 01:21 | 12.72879 | 124.01580 | 30707 ft | 449 kts | 325° |
| 2026-05-07 01:21 | 12.75535 | 123.99777 | 30983 ft | 449 kts | 325° |
| 2026-05-07 01:22 | 12.78125 | 123.98016 | 31251 ft | 449 kts | 325° |
| 2026-05-07 01:22 | 12.80736 | 123.96245 | 31543 ft | 448 kts | 325° |
| 2026-05-07 01:22 | 12.83354 | 123.94469 | 31932 ft | 445 kts | 325° |
| 2026-05-07 01:22 | 12.85926 | 123.92719 | 32313 ft | 442 kts | 325° |
| 2026-05-07 01:23 | 12.88529 | 123.90948 | 32654 ft | 440 kts | 324° |
| 2026-05-07 01:23 | 12.91076 | 123.89214 | 32966 ft | 439 kts | 325° |
| 2026-05-07 01:23 | 12.93649 | 123.87461 | 33263 ft | 438 kts | 325° |
| 2026-05-07 01:23 | 12.96172 | 123.85742 | 33521 ft | 438 kts | 325° |
| 2026-05-07 01:24 | 12.98738 | 123.83993 | 33755 ft | 438 kts | 325° |
| 2026-05-07 01:24 | 13.01282 | 123.82260 | 33968 ft | 438 kts | 325° |
| 2026-05-07 01:24 | 13.03809 | 123.80537 | 34179 ft | 439 kts | 325° |
| 2026-05-07 01:24 | 13.06354 | 123.78803 | 34391 ft | 439 kts | 325° |
| 2026-05-07 01:25 | 13.08893 | 123.77073 | 34567 ft | 441 kts | 325° |
| 2026-05-07 01:25 | 13.13969 | 123.73395 | 34754 ft | 446 kts | 320° |
| 2026-05-07 01:25 | 13.16378 | 123.71339 | 34908 ft | 447 kts | 317° |
| 2026-05-07 01:26 | 13.18650 | 123.69155 | 34978 ft | 448 kts | 314° |
| 2026-05-07 01:26 | 13.23046 | 123.64516 | 34995 ft | 448 kts | 313° |
| 2026-05-07 01:27 | 13.27394 | 123.59871 | 34998 ft | 445 kts | 313° |
| 2026-05-07 01:27 | 13.31673 | 123.55311 | 34999 ft | 443 kts | 313° |
| 2026-05-07 01:28 | 13.35978 | 123.50726 | 34999 ft | 442 kts | 313° |
| 2026-05-07 01:28 | 13.40294 | 123.46130 | 34999 ft | 442 kts | 313° |
| 2026-05-07 01:29 | 13.44595 | 123.41541 | 34999 ft | 443 kts | 313° |
| 2026-05-07 01:29 | 13.48887 | 123.36956 | 34999 ft | 443 kts | 313° |
| 2026-05-07 01:30 | 13.53186 | 123.32330 | 34998 ft | 442 kts | 311° |
| 2026-05-07 01:30 | 13.57096 | 123.27426 | 34998 ft | 442 kts | 305° |
| 2026-05-07 01:31 | 13.60442 | 123.22124 | 34998 ft | 442 kts | 299° |
| 2026-05-07 01:31 | 13.63254 | 123.16509 | 34999 ft | 442 kts | 295° |
| 2026-05-07 01:32 | 13.65960 | 123.10813 | 34999 ft | 443 kts | 295° |
| 2026-05-07 01:32 | 13.68652 | 123.05159 | 34999 ft | 443 kts | 295° |
| 2026-05-07 01:33 | 13.71378 | 122.99438 | 34999 ft | 444 kts | 295° |
| 2026-05-07 01:33 | 13.74072 | 122.93783 | 34999 ft | 444 kts | 295° |
| 2026-05-07 01:34 | 13.76797 | 122.88056 | 34998 ft | 443 kts | 295° |
| 2026-05-07 01:34 | 13.78154 | 122.85204 | 34870 ft | 438 kts | 295° |
| 2026-05-07 01:34 | 13.79483 | 122.82409 | 34404 ft | 436 kts | 295° |
| 2026-05-07 01:34 | 13.80817 | 122.79604 | 33780 ft | 435 kts | 295° |
| 2026-05-07 01:35 | 13.82135 | 122.76835 | 33205 ft | 433 kts | 295° |
| 2026-05-07 01:35 | 13.83465 | 122.74041 | 32567 ft | 433 kts | 295° |
| 2026-05-07 01:35 | 13.84785 | 122.71268 | 31874 ft | 434 kts | 295° |
| 2026-05-07 01:35 | 13.86127 | 122.68445 | 31135 ft | 436 kts | 295° |
| 2026-05-07 01:36 | 13.87441 | 122.65678 | 30398 ft | 437 kts | 295° |
| 2026-05-07 01:36 | 13.88786 | 122.62843 | 29638 ft | 439 kts | 295° |
| 2026-05-07 01:36 | 13.90121 | 122.60030 | 29030 ft | 436 kts | 296° |
| 2026-05-07 01:36 | 13.91435 | 122.57259 | 28544 ft | 431 kts | 296° |
| 2026-05-07 01:37 | 13.92754 | 122.54474 | 28010 ft | 427 kts | 296° |
| 2026-05-07 01:37 | 13.94072 | 122.51699 | 27446 ft | 424 kts | 295° |
| 2026-05-07 01:37 | 13.95367 | 122.48967 | 26858 ft | 422 kts | 295° |
| 2026-05-07 01:37 | 13.96650 | 122.46255 | 26307 ft | 419 kts | 295° |
| 2026-05-07 01:38 | 13.97927 | 122.43553 | 25783 ft | 415 kts | 295° |
| 2026-05-07 01:38 | 13.99201 | 122.40857 | 25255 ft | 411 kts | 295° |
| 2026-05-07 01:38 | 14.00454 | 122.38207 | 24733 ft | 408 kts | 295° |
| 2026-05-07 01:38 | 14.01686 | 122.35600 | 24220 ft | 405 kts | 295° |
| 2026-05-07 01:39 | 14.02911 | 122.33000 | 23703 ft | 401 kts | 295° |
| 2026-05-07 01:39 | 14.04132 | 122.30399 | 23176 ft | 398 kts | 295° |
| 2026-05-07 01:39 | 14.05339 | 122.27834 | 22679 ft | 395 kts | 295° |
| 2026-05-07 01:39 | 14.06535 | 122.25294 | 22174 ft | 392 kts | 295° |
| 2026-05-07 01:40 | 14.07714 | 122.22791 | 21668 ft | 389 kts | 295° |
| 2026-05-07 01:40 | 14.08901 | 122.20275 | 21168 ft | 386 kts | 295° |
| 2026-05-07 01:40 | 14.10064 | 122.17806 | 20651 ft | 383 kts | 295° |
| 2026-05-07 01:40 | 14.11236 | 122.15341 | 20143 ft | 381 kts | 295° |
| 2026-05-07 01:41 | 14.12397 | 122.12908 | 19650 ft | 378 kts | 295° |
| 2026-05-07 01:41 | 14.13558 | 122.10461 | 19155 ft | 375 kts | 295° |
| 2026-05-07 01:41 | 14.14697 | 122.08052 | 18652 ft | 373 kts | 295° |
| 2026-05-07 01:41 | 14.15826 | 122.05658 | 18145 ft | 371 kts | 295° |
| 2026-05-07 01:42 | 14.16948 | 122.03275 | 17646 ft | 368 kts | 295° |
| 2026-05-07 01:42 | 14.18068 | 122.00890 | 17150 ft | 366 kts | 295° |
| 2026-05-07 01:42 | 14.19171 | 121.98542 | 16751 ft | 361 kts | 295° |
| 2026-05-07 01:42 | 14.20261 | 121.96222 | 16472 ft | 352 kts | 295° |
| 2026-05-07 01:43 | 14.21318 | 121.93972 | 16098 ft | 348 kts | 295° |
| 2026-05-07 01:43 | 14.22364 | 121.91724 | 16008 ft | 349 kts | 294° |
| 2026-05-07 01:43 | 14.23372 | 121.89420 | 16003 ft | 350 kts | 293° |
| 2026-05-07 01:43 | 14.24357 | 121.87114 | 16001 ft | 350 kts | 292° |
| 2026-05-07 01:44 | 14.25331 | 121.84830 | 16000 ft | 350 kts | 292° |
| 2026-05-07 01:44 | 14.26319 | 121.82513 | 16000 ft | 350 kts | 292° |
| 2026-05-07 01:44 | 14.27299 | 121.80223 | 15999 ft | 350 kts | 293° |
| 2026-05-07 01:44 | 14.28287 | 121.77912 | 15999 ft | 350 kts | 293° |
| 2026-05-07 01:45 | 14.29270 | 121.75615 | 15999 ft | 350 kts | 293° |
| 2026-05-07 01:45 | 14.30252 | 121.73322 | 15999 ft | 350 kts | 293° |
| 2026-05-07 01:45 | 14.31228 | 121.71042 | 15999 ft | 350 kts | 293° |
| 2026-05-07 01:45 | 14.32222 | 121.68717 | 15999 ft | 350 kts | 293° |
| 2026-05-07 01:46 | 14.33220 | 121.66389 | 15999 ft | 350 kts | 293° |
| 2026-05-07 01:46 | 14.34242 | 121.63997 | 15999 ft | 350 kts | 293° |
| 2026-05-07 01:46 | 14.35260 | 121.61617 | 15999 ft | 350 kts | 293° |
| 2026-05-07 01:46 | 14.36252 | 121.59296 | 15939 ft | 346 kts | 293° |
| 2026-05-07 01:47 | 14.37241 | 121.56982 | 15509 ft | 344 kts | 293° |
| 2026-05-07 01:47 | 14.38205 | 121.54723 | 14975 ft | 344 kts | 293° |
| 2026-05-07 01:47 | 14.39177 | 121.52449 | 14504 ft | 342 kts | 293° |
| 2026-05-07 01:47 | 14.40138 | 121.50196 | 14052 ft | 340 kts | 293° |
| 2026-05-07 01:48 | 14.41084 | 121.47981 | 13604 ft | 338 kts | 293° |
| 2026-05-07 01:48 | 14.42032 | 121.45759 | 13152 ft | 336 kts | 293° |
| 2026-05-07 01:48 | 14.42972 | 121.43552 | 12700 ft | 334 kts | 293° |
| 2026-05-07 01:48 | 14.43892 | 121.41391 | 12254 ft | 332 kts | 293° |
| 2026-05-07 01:49 | 14.44829 | 121.39188 | 11801 ft | 330 kts | 293° |
| 2026-05-07 01:49 | 14.45753 | 121.37018 | 11352 ft | 328 kts | 293° |
| 2026-05-07 01:49 | 14.46668 | 121.34870 | 10908 ft | 326 kts | 293° |
| 2026-05-07 01:49 | 14.47574 | 121.32732 | 10466 ft | 324 kts | 293° |
| 2026-05-07 01:50 | 14.48475 | 121.30605 | 10077 ft | 320 kts | 292° |
| 2026-05-07 01:50 | 14.49160 | 121.28481 | 9956 ft | 305 kts | 275° |
| 2026-05-07 01:50 | 14.48853 | 121.26411 | 9955 ft | 286 kts | 244° |
| 2026-05-07 01:50 | 14.47879 | 121.24625 | 9973 ft | 285 kts | 238° |
| 2026-05-07 01:51 | 14.46823 | 121.22890 | 9972 ft | 285 kts | 237° |
| 2026-05-07 01:51 | 14.45781 | 121.21155 | 9932 ft | 285 kts | 238° |
| 2026-05-07 01:51 | 14.44758 | 121.19405 | 9798 ft | 284 kts | 239° |
| 2026-05-07 01:51 | 14.43760 | 121.17660 | 9652 ft | 284 kts | 239° |
| 2026-05-07 01:52 | 14.42756 | 121.15882 | 9487 ft | 283 kts | 239° |
| 2026-05-07 01:52 | 14.41768 | 121.14118 | 9312 ft | 282 kts | 239° |
| 2026-05-07 01:52 | 14.40786 | 121.12359 | 9066 ft | 281 kts | 240° |
| 2026-05-07 01:52 | 14.39823 | 121.10627 | 8781 ft | 280 kts | 239° |
| 2026-05-07 01:53 | 14.38847 | 121.08874 | 8472 ft | 278 kts | 240° |
| 2026-05-07 01:53 | 14.37869 | 121.07115 | 8153 ft | 277 kts | 239° |
| 2026-05-07 01:53 | 14.36914 | 121.05399 | 7838 ft | 276 kts | 240° |
| 2026-05-07 01:53 | 14.35955 | 121.03674 | 7519 ft | 275 kts | 240° |
| 2026-05-07 01:54 | 14.34993 | 121.01943 | 7198 ft | 274 kts | 240° |
| 2026-05-07 01:54 | 14.34047 | 121.00243 | 6891 ft | 272 kts | 239° |
| 2026-05-07 01:54 | 14.33115 | 120.98568 | 6574 ft | 268 kts | 239° |
| 2026-05-07 01:54 | 14.32182 | 120.96893 | 6260 ft | 265 kts | 240° |
| 2026-05-07 01:55 | 14.31281 | 120.95273 | 5959 ft | 261 kts | 240° |
| 2026-05-07 01:55 | 14.30379 | 120.93652 | 5660 ft | 258 kts | 239° |
| 2026-05-07 01:55 | 14.29484 | 120.92049 | 5365 ft | 254 kts | 239° |
| 2026-05-07 01:55 | 14.28653 | 120.90440 | 5050 ft | 252 kts | 250° |
| 2026-05-07 01:56 | 14.28591 | 120.88684 | 4967 ft | 241 kts | 289° |
| 2026-05-07 01:56 | 14.29520 | 120.87279 | 4655 ft | 243 kts | 324° |
| 2026-05-07 01:56 | 14.30988 | 120.86423 | 4387 ft | 239 kts | 333° |
| 2026-05-07 01:56 | 14.32475 | 120.85631 | 4166 ft | 241 kts | 332° |
| 2026-05-07 01:57 | 14.33963 | 120.84808 | 3941 ft | 240 kts | 331° |
| 2026-05-07 01:57 | 14.35418 | 120.83981 | 3719 ft | 237 kts | 330° |
| 2026-05-07 01:57 | 14.36838 | 120.83164 | 3511 ft | 231 kts | 330° |
| 2026-05-07 01:57 | 14.38239 | 120.82352 | 3301 ft | 225 kts | 331° |
| 2026-05-07 01:58 | 14.39693 | 120.81818 | 2995 ft | 222 kts | 360° |
| 2026-05-07 01:58 | 14.41152 | 120.82201 | 2993 ft | 216 kts | 34° |
| 2026-05-07 01:58 | 14.42078 | 120.83321 | 3057 ft | 197 kts | 67° |
| 2026-05-07 01:58 | 14.42429 | 120.84615 | 2990 ft | 179 kts | 80° |
| 2026-05-07 01:59 | 14.42641 | 120.85827 | 2943 ft | 165 kts | 82° |
| 2026-05-07 01:59 | 14.42893 | 120.86961 | 2883 ft | 161 kts | 75° |
| 2026-05-07 01:59 | 14.43272 | 120.88034 | 2668 ft | 160 kts | 68° |
| 2026-05-07 01:59 | 14.43752 | 120.89075 | 2459 ft | 158 kts | 63° |
| 2026-05-07 02:00 | 14.44272 | 120.90076 | 2286 ft | 159 kts | 62° |
| 2026-05-07 02:00 | 14.44817 | 120.91067 | 2071 ft | 158 kts | 60° |
| 2026-05-07 02:00 | 14.45365 | 120.92054 | 1854 ft | 157 kts | 62° |
| 2026-05-07 02:00 | 14.45910 | 120.93037 | 1645 ft | 157 kts | 60° |
| 2026-05-07 02:01 | 14.46461 | 120.94016 | 1431 ft | 156 kts | 60° |
| 2026-05-07 02:01 | 14.46996 | 120.94979 | 1223 ft | 153 kts | 60° |
| 2026-05-07 02:01 | 14.47528 | 120.95937 | 1016 ft | 153 kts | 61° |
| 2026-05-07 02:01 | 14.48053 | 120.96889 | 814 ft | 153 kts | 61° |
| 2026-05-07 02:02 | 14.48588 | 120.97855 | 611 ft | 152 kts | 62° |
| 2026-05-07 02:02 | 14.49113 | 120.98801 | 412 ft | 152 kts | 60° |
| 2026-05-07 02:02 | 14.49640 | 120.99751 | 214 ft | 151 kts | 61° |
| 2026-05-07 02:02 | 14.50158 | 121.00681 | 84 ft | 141 kts | 61° |
| 2026-05-07 02:03 | 14.50506 | 121.01314 | 84 ft | 61 kts | 59° |
| 2026-05-07 02:03 | 14.50689 | 121.01630 | 84 ft | 40 kts | 52° |
| 2026-05-07 02:03 | 14.50839 | 121.01773 | 84 ft | 13 kts | 38° |
| 2026-05-07 02:03 | 14.50908 | 121.01768 | 83 ft | 11 kts | 314° |